createdAt,value
2019-05-09T00:01:17.326Z,8.07
2019-05-09T00:03:46.675Z,6.97
2019-05-09T00:06:16.561Z,7.10
2019-05-09T00:08:45.739Z,7.43
2019-05-09T00:11:15.280Z,7.40
2019-05-09T00:13:45.009Z,8.03
2019-05-09T00:16:14.900Z,7.00
2019-05-09T00:18:44.616Z,7.37
2019-05-09T00:21:33.432Z,7.60
2019-05-09T00:24:03.699Z,7.23
2019-05-09T00:26:33.883Z,6.93
2019-05-09T00:29:08.400Z,7.33
2019-05-09T00:31:54.151Z,7.50
2019-05-09T00:34:33.819Z,6.57
2019-05-09T00:37:03.569Z,7.40
2019-05-09T00:39:34.069Z,7.00
2019-05-09T00:42:04.376Z,7.50
2019-05-09T00:44:35.777Z,6.60
2019-05-09T00:47:15.584Z,7.10
2019-05-09T00:49:45.548Z,6.40
2019-05-09T00:52:15.130Z,7.20
2019-05-09T00:54:44.740Z,6.70
2019-05-09T00:57:33.494Z,7.43
2019-05-09T01:00:05.847Z,6.70
2019-05-09T01:02:35.358Z,6.43
2019-05-09T01:05:05.322Z,6.40
2019-05-09T01:07:35.315Z,6.53
2019-05-09T01:10:24.249Z,6.43
2019-05-09T01:12:54.424Z,6.30
2019-05-09T01:15:24.149Z,6.70
2019-05-09T01:17:54.163Z,6.80
2019-05-09T01:20:26.221Z,6.60
2019-05-09T01:22:57.054Z,7.37
2019-05-09T01:25:27.265Z,7.10
2019-05-09T01:27:56.497Z,6.77
2019-05-09T01:30:26.082Z,6.00
2019-05-09T01:33:26.720Z,6.53
2019-05-09T01:35:56.213Z,6.70
2019-05-09T01:38:25.463Z,5.73
2019-05-09T01:40:55.425Z,5.60
2019-05-09T01:43:25.039Z,6.17
2019-05-09T01:45:54.956Z,5.73
2019-05-09T01:48:24.592Z,6.43
2019-05-09T01:50:54.825Z,5.73
2019-05-09T01:53:29.299Z,5.40
2019-05-09T01:55:59.676Z,5.40
2019-05-09T01:58:29.928Z,6.00
2019-05-09T02:00:59.495Z,5.50
2019-05-09T02:03:29.359Z,5.77
2019-05-09T02:05:58.601Z,5.67
2019-05-09T02:08:28.470Z,6.20
2019-05-09T02:10:57.940Z,5.57
2019-05-09T02:13:27.931Z,6.03
2019-05-09T02:16:24.243Z,6.00
2019-05-09T02:19:04.031Z,5.30
2019-05-09T02:21:34.521Z,5.57
2019-05-09T02:24:04.710Z,5.43
2019-05-09T02:26:33.896Z,5.30
2019-05-09T02:29:03.398Z,6.13
2019-05-09T02:31:35.401Z,5.47
2019-05-09T02:34:05.078Z,4.87
2019-05-09T02:36:34.840Z,5.47
2019-05-09T02:39:09.017Z,5.63
2019-05-09T02:41:39.094Z,5.57
2019-05-09T02:44:09.530Z,6.37
2019-05-09T02:46:44.903Z,5.90
2019-05-09T02:49:14.480Z,6.07
2019-05-09T02:51:44.793Z,5.77
2019-05-09T02:54:14.382Z,5.10
2019-05-09T02:56:44.332Z,5.97
2019-05-09T02:59:19.796Z,6.53
2019-05-09T03:02:19.632Z,5.97
2019-05-09T03:04:49.159Z,6.20
2019-05-09T03:07:20.233Z,5.90
2019-05-09T03:09:49.821Z,6.80
2019-05-09T03:12:30.481Z,6.50
2019-05-09T03:14:51.015Z,6.33
2019-05-09T03:17:20.952Z,6.03
2019-05-09T03:19:50.944Z,6.37
2019-05-09T03:22:21.299Z,6.00
2019-05-09T03:24:50.857Z,5.97
2019-05-09T03:27:28.784Z,6.77
2019-05-09T03:30:00.656Z,6.70
2019-05-09T03:32:30.243Z,6.63
2019-05-09T03:34:59.505Z,6.47
2019-05-09T03:37:29.124Z,6.00
2019-05-09T03:39:59.311Z,6.27
2019-05-09T03:42:39.661Z,6.60
2019-05-09T03:45:00.455Z,6.00
2019-05-09T03:47:42.967Z,7.07
2019-05-09T03:50:17.643Z,6.80
2019-05-09T03:52:47.875Z,6.50
2019-05-09T03:55:38.368Z,7.03
2019-05-09T03:58:14.752Z,6.90
2019-05-09T04:00:44.683Z,7.10
2019-05-09T04:03:14.629Z,8.53
2019-05-09T04:05:55.488Z,7.03
2019-05-09T04:08:18.585Z,5.97
2019-05-09T04:10:51.943Z,7.47
2019-05-09T04:13:23.750Z,7.77
2019-05-09T04:15:53.306Z,8.00
2019-05-09T04:18:22.917Z,8.03
2019-05-09T04:20:52.828Z,8.63
2019-05-09T04:23:22.746Z,8.40
2019-05-09T04:26:17.703Z,9.40
2019-05-09T04:28:47.772Z,9.13
2019-05-09T04:31:17.884Z,9.67
2019-05-09T04:33:47.389Z,9.10
2019-05-09T04:36:19.135Z,10.13
2019-05-09T04:38:49.201Z,10.50
2019-05-09T04:41:23.882Z,10.80
2019-05-09T04:43:50.051Z,10.97
2019-05-09T04:46:24.110Z,10.17
2019-05-09T04:48:54.102Z,10.10
2019-05-09T04:51:22.977Z,10.47
2019-05-09T04:53:52.866Z,10.57
2019-05-09T04:56:29.812Z,10.37
2019-05-09T04:58:59.432Z,10.63
2019-05-09T05:01:47.764Z,11.53
2019-05-09T05:04:18.744Z,10.67
2019-05-09T05:06:48.256Z,10.70
2019-05-09T05:09:21.183Z,11.50
2019-05-09T05:11:49.213Z,11.60
2019-05-09T05:14:22.077Z,12.00
2019-05-09T05:16:55.357Z,11.03
2019-05-09T05:19:25.477Z,12.30
2019-05-09T05:21:58.360Z,12.93
2019-05-09T05:24:41.870Z,12.20
2019-05-09T05:27:11.541Z,12.80
2019-05-09T05:29:41.208Z,12.27
2019-05-09T05:32:17.673Z,14.73
2019-05-09T05:35:23.215Z,13.63
2019-05-09T05:37:52.411Z,14.67
2019-05-09T05:40:21.712Z,16.70
2019-05-09T05:42:51.776Z,16.73
2019-05-09T05:45:22.082Z,14.53
2019-05-09T05:48:01.539Z,15.17
2019-05-09T05:50:30.846Z,13.40
2019-05-09T05:53:01.099Z,14.60
2019-05-09T05:55:30.750Z,14.63
2019-05-09T05:58:00.708Z,13.60
2019-05-09T06:00:30.348Z,13.90
2019-05-09T06:02:59.701Z,15.60
2019-05-09T06:05:30.253Z,15.20
2019-05-09T06:08:00.295Z,13.47
2019-05-09T06:10:30.003Z,14.20
2019-05-09T06:12:59.898Z,14.13
2019-05-09T06:15:30.209Z,13.73
2019-05-09T06:17:59.602Z,15.23
2019-05-09T06:20:28.861Z,14.73
2019-05-09T06:22:59.255Z,13.90
2019-05-09T06:25:30.465Z,14.00
2019-05-09T06:28:00.259Z,15.03
2019-05-09T06:30:30.411Z,15.83
2019-05-09T06:33:04.245Z,14.33
2019-05-09T06:35:32.353Z,16.20
2019-05-09T06:38:01.916Z,16.30
2019-05-09T06:40:31.710Z,15.17
2019-05-09T06:43:18.360Z,15.73
2019-05-09T06:46:07.939Z,14.90
2019-05-09T06:48:37.937Z,14.90
2019-05-09T06:51:07.733Z,14.50
2019-05-09T06:53:38.166Z,14.90
2019-05-09T06:56:07.795Z,13.17
2019-05-09T06:58:38.354Z,13.10
2019-05-09T07:01:29.839Z,13.37
2019-05-09T07:04:05.160Z,11.87
2019-05-09T07:06:59.121Z,14.00
2019-05-09T07:09:47.919Z,13.33
2019-05-09T07:12:18.125Z,13.70
2019-05-09T07:14:48.870Z,12.73
2019-05-09T07:17:18.881Z,12.60
2019-05-09T07:19:49.038Z,13.57
2019-05-09T07:22:39.205Z,14.17
2019-05-09T07:25:28.138Z,14.20
2019-05-09T07:27:58.655Z,13.20
2019-05-09T07:30:48.093Z,15.80
2019-05-09T07:33:23.795Z,15.03
2019-05-09T07:35:53.827Z,15.23
2019-05-09T07:38:30.631Z,15.33
2019-05-09T07:41:00.832Z,15.23
2019-05-09T07:43:30.819Z,15.13
2019-05-09T07:46:17.725Z,14.23
2019-05-09T07:48:48.387Z,14.83
2019-05-09T07:51:18.181Z,13.53
2019-05-09T07:53:48.309Z,14.53
2019-05-09T07:56:18.657Z,14.73
2019-05-09T07:58:48.549Z,15.27
2019-05-09T08:01:19.091Z,15.00
2019-05-09T08:03:49.106Z,15.27
2019-05-09T08:06:19.172Z,15.77
2019-05-09T08:08:48.849Z,15.33
2019-05-09T08:11:19.075Z,16.27
2019-05-09T08:13:48.845Z,16.53
2019-05-09T08:16:18.746Z,15.47
2019-05-09T08:18:48.794Z,15.13
2019-05-09T08:21:19.010Z,15.07
2019-05-09T08:23:49.064Z,14.87
2019-05-09T08:26:19.107Z,13.93
2019-05-09T08:28:49.394Z,14.27
2019-05-09T08:31:19.307Z,14.47
2019-05-09T08:33:49.229Z,14.20
2019-05-09T08:36:20.189Z,12.50
2019-05-09T08:38:50.044Z,12.93
2019-05-09T08:41:19.297Z,13.40
2019-05-09T08:43:48.579Z,13.17
2019-05-09T08:46:18.389Z,12.17
2019-05-09T08:48:48.471Z,12.43
2019-05-09T08:51:36.618Z,12.13
2019-05-09T08:53:59.412Z,12.70
2019-05-09T08:56:29.338Z,13.10
2019-05-09T08:59:01.976Z,11.90
2019-05-09T09:01:50.565Z,12.03
2019-05-09T09:04:02.144Z,10.83
2019-05-09T09:06:31.767Z,12.10
2019-05-09T09:09:01.703Z,11.67
2019-05-09T09:11:31.002Z,11.90
2019-05-09T09:14:01.348Z,12.60
2019-05-09T09:16:31.624Z,12.27
2019-05-09T09:19:01.284Z,12.53
2019-05-09T09:21:31.152Z,12.97
2019-05-09T09:24:00.384Z,12.53
2019-05-09T09:26:29.645Z,12.67
2019-05-09T09:28:59.795Z,12.03
2019-05-09T09:31:29.132Z,12.73
2019-05-09T09:33:58.622Z,13.70
2019-05-09T09:36:28.457Z,13.17
2019-05-09T09:38:58.739Z,13.20
2019-05-09T09:41:28.904Z,14.33
2019-05-09T09:43:58.491Z,12.63
2019-05-09T09:46:28.732Z,14.57
2019-05-09T09:48:58.917Z,14.10
2019-05-09T09:51:28.659Z,13.90
2019-05-09T09:53:58.529Z,14.30
2019-05-09T09:56:28.376Z,14.03
2019-05-09T09:59:12.540Z,14.43
2019-05-09T10:01:43.977Z,15.60
2019-05-09T10:04:23.964Z,15.93
2019-05-09T10:06:50.773Z,15.73
2019-05-09T10:09:19.544Z,17.97
2019-05-09T10:11:49.389Z,18.53
2019-05-09T10:14:28.325Z,19.47
2019-05-09T10:17:17.927Z,19.90
2019-05-09T10:20:01.593Z,17.37
2019-05-09T10:22:31.120Z,17.70
2019-05-09T10:25:00.432Z,18.37
2019-05-09T10:27:30.246Z,18.20
2019-05-09T10:30:00.280Z,15.70
2019-05-09T10:32:29.782Z,15.93
2019-05-09T10:34:59.044Z,17.70
2019-05-09T10:37:29.068Z,17.53
2019-05-09T10:39:58.832Z,16.80
2019-05-09T10:42:51.529Z,17.53
2019-05-09T10:45:40.719Z,17.73
2019-05-09T10:48:09.895Z,15.27
2019-05-09T10:50:44.709Z,18.53
2019-05-09T10:53:10.560Z,19.17
2019-05-09T10:55:40.491Z,15.90
2019-05-09T10:58:10.088Z,15.80
2019-05-09T11:00:39.778Z,15.43
2019-05-09T11:03:09.478Z,16.03
2019-05-09T11:05:39.112Z,14.43
2019-05-09T11:08:08.634Z,14.07
2019-05-09T11:10:39.780Z,13.83
2019-05-09T11:13:09.711Z,13.47
2019-05-09T11:15:39.740Z,14.17
2019-05-09T11:18:09.262Z,14.70
2019-05-09T11:20:39.350Z,14.17
2019-05-09T11:23:09.552Z,14.37
2019-05-09T11:25:39.785Z,13.67
2019-05-09T11:28:14.743Z,13.53
2019-05-09T11:30:41.683Z,13.90
2019-05-09T11:33:11.571Z,14.43
2019-05-09T11:35:41.815Z,14.40
2019-05-09T11:38:11.986Z,14.50
2019-05-09T11:40:42.182Z,16.20
2019-05-09T11:43:12.084Z,15.03
2019-05-09T11:45:41.674Z,16.40
2019-05-09T11:48:11.612Z,14.90
2019-05-09T11:50:41.524Z,15.30
2019-05-09T11:53:11.239Z,15.47
2019-05-09T11:55:43.009Z,15.53
2019-05-09T11:58:11.792Z,15.23
2019-05-09T12:00:41.909Z,15.40
2019-05-09T12:03:11.471Z,13.37
2019-05-09T12:05:41.182Z,13.90
2019-05-09T12:08:10.756Z,14.93
2019-05-09T12:10:40.414Z,13.93
2019-05-09T12:13:11.215Z,12.40
2019-05-09T12:15:40.924Z,14.03
2019-05-09T12:18:11.594Z,13.63
2019-05-09T12:20:42.162Z,12.93
2019-05-09T12:23:12.276Z,13.27
2019-05-09T12:25:42.218Z,13.67
2019-05-09T12:28:11.467Z,14.57
2019-05-09T12:30:42.064Z,16.73
2019-05-09T12:33:11.948Z,13.90
2019-05-09T12:35:41.398Z,14.10
2019-05-09T12:38:11.115Z,15.33
2019-05-09T12:40:40.759Z,17.07
2019-05-09T12:43:10.487Z,14.97
2019-05-09T12:45:39.762Z,14.87
2019-05-09T12:48:15.009Z,13.83
2019-05-09T12:50:40.431Z,13.90
2019-05-09T12:53:10.064Z,13.60
2019-05-09T12:55:39.973Z,14.03
2019-05-09T12:58:27.798Z,16.00
2019-05-09T13:00:58.460Z,16.60
2019-05-09T13:03:28.572Z,15.83
2019-05-09T13:05:58.810Z,15.60
2019-05-09T13:08:28.066Z,15.87
2019-05-09T13:10:58.392Z,17.27
2019-05-09T13:13:31.777Z,16.53
2019-05-09T13:16:19.141Z,16.27
2019-05-09T13:19:02.836Z,16.70
2019-05-09T13:21:33.289Z,17.20
2019-05-09T13:24:03.701Z,17.80
2019-05-09T13:26:33.700Z,18.67
2019-05-09T13:29:03.374Z,17.00
2019-05-09T13:31:34.754Z,16.53
2019-05-09T13:34:07.689Z,17.87
2019-05-09T13:36:36.935Z,18.37
2019-05-09T13:39:08.771Z,17.43
2019-05-09T13:41:39.045Z,19.37
2019-05-09T13:44:13.586Z,21.07
2019-05-09T13:46:40.593Z,19.60
2019-05-09T13:49:15.179Z,20.67
2019-05-09T13:51:49.977Z,19.10
2019-05-09T13:54:12.938Z,20.37
2019-05-09T13:56:43.113Z,22.40
2019-05-09T13:59:12.652Z,20.40
2019-05-09T14:01:42.576Z,22.07
2019-05-09T14:04:12.249Z,22.90
2019-05-09T14:06:42.179Z,20.57
2019-05-09T14:09:11.793Z,22.07
2019-05-09T14:11:41.662Z,21.67
2019-05-09T14:14:12.254Z,23.43
2019-05-09T14:16:42.472Z,23.27
2019-05-09T14:19:29.913Z,23.27
2019-05-09T14:21:43.143Z,23.63
2019-05-09T14:24:16.634Z,24.73
2019-05-09T14:26:43.805Z,23.03
2019-05-09T14:29:13.827Z,25.60
2019-05-09T14:31:43.503Z,24.83
2019-05-09T14:34:13.108Z,25.50
2019-05-09T14:36:45.775Z,27.43
2019-05-09T14:39:14.769Z,30.17
2019-05-09T14:41:47.091Z,31.57
2019-05-09T14:44:17.922Z,35.10
2019-05-09T14:46:48.203Z,34.93
2019-05-09T14:49:17.952Z,34.80
2019-05-09T14:51:50.050Z,34.40
2019-05-09T14:54:19.299Z,40.33
2019-05-09T14:56:49.037Z,41.73
2019-05-09T14:59:18.837Z,38.43
2019-05-09T15:01:49.621Z,37.53
2019-05-09T15:04:19.628Z,37.73
2019-05-09T15:06:49.854Z,37.10
2019-05-09T15:09:19.531Z,33.97
2019-05-09T15:11:49.175Z,35.53
2019-05-09T15:14:18.934Z,34.03
2019-05-09T15:16:48.825Z,32.53
2019-05-09T15:19:18.382Z,34.77
2019-05-09T15:21:49.044Z,26.30
2019-05-09T15:24:19.445Z,29.00
2019-05-09T15:26:49.014Z,32.03
2019-05-09T15:29:18.666Z,32.43
2019-05-09T15:31:54.543Z,34.33
2019-05-09T15:34:19.676Z,34.80
2019-05-09T15:36:49.664Z,35.03
2019-05-09T15:39:19.652Z,36.03
2019-05-09T15:41:49.311Z,37.37
2019-05-09T15:44:19.281Z,38.23
2019-05-09T15:46:53.191Z,32.43
2019-05-09T15:49:23.025Z,31.00
2019-05-09T15:51:53.011Z,31.03
2019-05-09T15:54:22.891Z,26.90
2019-05-09T15:56:52.377Z,24.47
2019-05-09T15:59:22.621Z,23.20
2019-05-09T16:01:51.970Z,26.00
2019-05-09T16:04:21.955Z,28.47
2019-05-09T16:06:52.293Z,23.37
2019-05-09T16:09:22.258Z,28.50
2019-05-09T16:11:52.339Z,26.47
2019-05-09T16:14:21.891Z,28.20
2019-05-09T16:16:51.184Z,26.93
2019-05-09T16:19:20.657Z,28.97
2019-05-09T16:21:50.665Z,30.70
2019-05-09T16:24:20.051Z,31.37
2019-05-09T16:26:50.068Z,26.10
2019-05-09T16:29:19.726Z,32.63
2019-05-09T16:31:49.446Z,26.70
2019-05-09T16:34:19.647Z,23.57
2019-05-09T16:36:49.286Z,23.13
2019-05-09T16:39:18.970Z,22.50
2019-05-09T16:41:49.027Z,21.00
2019-05-09T16:44:18.808Z,20.73
2019-05-09T16:46:49.708Z,21.17
2019-05-09T16:49:20.232Z,21.40
2019-05-09T16:51:50.491Z,21.07
2019-05-09T16:54:41.260Z,18.57
2019-05-09T16:57:11.298Z,17.97
2019-05-09T16:59:40.607Z,20.57
2019-05-09T17:02:21.792Z,39.60
2019-05-09T17:04:41.931Z,27.00
2019-05-09T17:07:12.717Z,29.67
2019-05-09T17:09:44.388Z,25.30
2019-05-09T17:12:14.694Z,27.97
2019-05-09T17:14:44.396Z,29.10
2019-05-09T17:17:13.794Z,25.83
2019-05-09T17:19:43.044Z,31.23
2019-05-09T17:22:19.811Z,37.87
2019-05-09T17:24:50.826Z,35.30
2019-05-09T17:27:20.545Z,28.33
2019-05-09T17:29:50.135Z,28.80
2019-05-09T17:32:19.674Z,25.60
2019-05-09T17:34:50.048Z,27.23
2019-05-09T17:37:20.567Z,27.13
2019-05-09T17:39:50.978Z,27.60
2019-05-09T17:42:21.101Z,25.93
2019-05-09T17:44:51.194Z,28.20
2019-05-09T17:47:20.582Z,27.50
2019-05-09T17:49:50.287Z,26.23
2019-05-09T17:52:20.756Z,27.27
2019-05-09T17:54:51.128Z,28.20
2019-05-09T17:57:21.416Z,27.80
2019-05-09T17:59:51.119Z,27.77
2019-05-09T18:02:21.436Z,29.80
2019-05-09T18:04:51.196Z,31.13
2019-05-09T18:07:20.554Z,30.93
2019-05-09T18:09:49.840Z,30.53
2019-05-09T18:12:19.473Z,29.13
2019-05-09T18:14:49.503Z,31.53
2019-05-09T18:17:19.888Z,29.57
2019-05-09T18:19:49.531Z,30.47
2019-05-09T18:22:19.263Z,29.47
2019-05-09T18:24:48.905Z,33.10
2019-05-09T18:27:18.965Z,30.90
2019-05-09T18:29:48.648Z,31.87
2019-05-09T18:32:27.613Z,33.40
2019-05-09T18:35:08.972Z,33.23
2019-05-09T18:37:38.576Z,31.67
2019-05-09T18:40:09.003Z,32.60
2019-05-09T18:42:38.729Z,32.77
2019-05-09T18:45:08.109Z,31.37
2019-05-09T18:47:37.442Z,34.00
2019-05-09T18:50:07.512Z,31.70
2019-05-09T18:52:37.180Z,33.50
2019-05-09T18:55:07.887Z,31.57
2019-05-09T18:57:37.956Z,29.57
2019-05-09T19:00:08.313Z,32.40
2019-05-09T19:02:37.673Z,32.50
2019-05-09T19:05:08.010Z,32.47
2019-05-09T19:07:37.991Z,32.03
2019-05-09T19:10:08.221Z,32.83
2019-05-09T19:12:37.525Z,32.53
2019-05-09T19:15:08.408Z,33.83
2019-05-09T19:18:14.761Z,34.43
2019-05-09T19:20:55.378Z,34.13
2019-05-09T19:23:25.145Z,38.97
2019-05-09T19:25:54.934Z,40.20
2019-05-09T19:28:24.976Z,42.03
2019-05-09T19:30:54.364Z,44.83
2019-05-09T19:33:23.967Z,43.33
2019-05-09T19:35:54.254Z,43.70
2019-05-09T19:38:23.957Z,41.00
2019-05-09T19:40:54.040Z,39.93
2019-05-09T19:43:23.753Z,41.67
2019-05-09T19:45:53.760Z,42.10
2019-05-09T19:48:23.100Z,40.33
2019-05-09T19:50:52.776Z,36.63
2019-05-09T19:53:22.671Z,37.37
2019-05-09T19:55:52.049Z,38.30
2019-05-09T19:58:22.019Z,36.47
2019-05-09T20:00:52.340Z,37.47
2019-05-09T20:03:22.072Z,38.77
2019-05-09T20:05:51.800Z,38.53
2019-05-09T20:08:21.521Z,36.77
2019-05-09T20:11:16.603Z,37.20
2019-05-09T20:14:03.648Z,39.37
2019-05-09T20:16:35.276Z,39.83
2019-05-09T20:19:04.586Z,40.47
2019-05-09T20:21:34.426Z,40.13
2019-05-09T20:24:03.828Z,40.00
2019-05-09T20:26:33.911Z,42.30
2019-05-09T20:29:04.647Z,41.07
2019-05-09T20:31:34.076Z,41.53
2019-05-09T20:34:04.021Z,41.23
2019-05-09T20:36:33.748Z,40.83
2019-05-09T20:39:04.632Z,43.93
2019-05-09T20:41:34.065Z,41.73
2019-05-09T20:44:04.714Z,45.23
2019-05-09T20:46:34.930Z,46.97
2019-05-09T20:49:04.455Z,47.80
2019-05-09T20:51:34.706Z,44.60
2019-05-09T20:54:19.733Z,46.00
2019-05-09T20:56:35.705Z,45.37
2019-05-09T20:59:05.969Z,46.27
2019-05-09T21:01:36.097Z,45.90
2019-05-09T21:04:06.136Z,45.00
2019-05-09T21:06:36.476Z,46.50
2019-05-09T21:09:07.512Z,48.03
2019-05-09T21:11:37.917Z,48.10
2019-05-09T21:14:08.384Z,48.40
2019-05-09T21:16:39.035Z,50.20
2019-05-09T21:19:08.443Z,52.50
2019-05-09T21:21:38.323Z,51.93
2019-05-09T21:24:08.763Z,51.63
2019-05-09T21:26:38.634Z,51.40
2019-05-09T21:29:27.212Z,49.50
2019-05-09T21:31:57.284Z,50.93
2019-05-09T21:34:26.826Z,54.20
2019-05-09T21:36:56.432Z,54.40
2019-05-09T21:39:25.772Z,54.40
2019-05-09T21:41:55.302Z,53.20
2019-05-09T21:44:25.080Z,49.63
2019-05-09T21:46:54.717Z,52.40
2019-05-09T21:49:24.282Z,51.07
2019-05-09T21:51:53.792Z,50.00
2019-05-09T21:54:23.144Z,52.13
2019-05-09T21:56:52.392Z,51.70
2019-05-09T21:59:22.418Z,53.40
2019-05-09T22:01:52.405Z,55.70
2019-05-09T22:04:22.092Z,56.60
2019-05-09T22:06:51.746Z,64.73
2019-05-09T22:09:21.743Z,62.73
2019-05-09T22:11:52.121Z,65.20
2019-05-09T22:14:22.061Z,60.43
2019-05-09T22:16:51.329Z,64.30
2019-05-09T22:19:20.549Z,56.63
2019-05-09T22:21:49.769Z,55.63
2019-05-09T22:24:19.643Z,52.00
2019-05-09T22:26:49.869Z,54.00
2019-05-09T22:29:19.508Z,54.53
2019-05-09T22:31:49.115Z,52.80
2019-05-09T22:34:18.748Z,50.70
2019-05-09T22:36:48.236Z,51.23
2019-05-09T22:39:18.007Z,53.10
2019-05-09T22:41:47.946Z,53.13
2019-05-09T22:44:18.068Z,54.70
2019-05-09T22:46:48.312Z,54.33
2019-05-09T22:49:17.493Z,53.17
2019-05-09T22:51:47.136Z,51.87
2019-05-09T22:54:16.745Z,51.40
2019-05-09T22:56:46.638Z,52.93
2019-05-09T22:59:15.920Z,54.00
2019-05-09T23:01:45.540Z,51.23
2019-05-09T23:04:15.381Z,54.33
2019-05-09T23:06:45.206Z,53.80
2019-05-09T23:09:14.845Z,52.00
2019-05-09T23:11:44.436Z,50.57
2019-05-09T23:14:14.314Z,52.57
2019-05-09T23:16:44.305Z,51.20
2019-05-09T23:19:13.860Z,51.13
2019-05-09T23:21:44.037Z,53.27
2019-05-09T23:24:27.440Z,54.03
2019-05-09T23:26:46.798Z,56.47
2019-05-09T23:29:17.147Z,54.63
2019-05-09T23:32:05.718Z,52.37
2019-05-09T23:34:35.251Z,51.43
2019-05-09T23:37:04.440Z,52.40
2019-05-09T23:39:40.964Z,50.77
2019-05-09T23:42:10.923Z,50.07
2019-05-09T23:44:40.886Z,48.17
2019-05-09T23:47:10.493Z,45.43
2019-05-09T23:49:40.074Z,47.40
2019-05-09T23:52:10.029Z,43.53
2019-05-09T23:54:56.902Z,42.00
2019-05-09T23:57:43.879Z,41.40
